Time;durP1;ratioP1;P1;durP2;ratioP2;P2;SDS_P1;SDS_P2;PMS_P1;PMS_P2;Temp;Humidity;BMP_temperature;BMP_pressure;BME280_temperature;BME280_humidity;BME280_pressure;Samples;Min_cycle;Max_cycle;Signal;HPM_P1;HPM_P2
2021/01/03 00:01:54;;;;;;;25.92;17.25;;;;;;;1.79;98.66;100797.86;1674499;85;21142;-70
2021/01/03 00:04:21;;;;;;;23.40;15.35;;;;;;;1.82;98.78;100789.59;1670634;85;21174;-66
2021/01/03 00:06:52;;;;;;;22.27;15.45;;;;;;;1.86;98.89;100792.23;1659577;85;21180;-67
2021/01/03 00:09:22;;;;;;;20.50;14.75;;;;;;;1.88;98.99;100794.20;1674613;85;21458;-67
2021/01/03 00:11:50;;;;;;;19.27;13.32;;;;;;;1.85;98.92;100793.23;1674618;85;21196;-68
2021/01/03 00:14:18;;;;;;;26.90;18.40;;;;;;;1.83;99.01;100794.70;1674881;85;21118;-68
2021/01/03 00:16:48;;;;;;;22.95;15.05;;;;;;;1.85;99.07;100793.23;1674941;85;21580;-68
2021/01/03 00:19:15;;;;;;;23.52;15.20;;;;;;;1.86;98.99;100791.74;1674824;85;21186;-69
2021/01/03 00:21:43;;;;;;;28.92;16.55;;;;;;;1.87;98.98;100793.90;1674748;85;21228;-66
2021/01/03 00:24:10;;;;;;;24.90;17.23;;;;;;;1.86;98.87;100795.72;1674032;85;22002;-68
2021/01/03 00:26:38;;;;;;;25.30;16.80;;;;;;;1.86;98.76;100795.72;1645531;87;21141;-67
2021/01/03 00:29:05;;;;;;;19.75;12.98;;;;;;;1.86;98.46;100802.84;1645731;87;21140;-69
2021/01/03 00:31:32;;;;;;;21.93;15.08;;;;;;;1.86;98.54;100797.05;1645948;86;21617;-69
2021/01/03 00:34:00;;;;;;;18.35;13.18;;;;;;;1.89;98.57;100801.17;1646113;87;21388;-69
2021/01/03 00:36:27;;;;;;;19.27;14.10;;;;;;;1.89;98.45;100796.70;1674480;85;21227;-68
2021/01/03 00:38:55;;;;;;;25.25;16.35;;;;;;;1.90;98.55;100804.17;1663510;85;21179;-69
2021/01/03 00:41:22;;;;;;;20.60;14.63;;;;;;;1.92;98.54;100800.86;1645624;87;21624;-68
2021/01/03 00:43:49;;;;;;;20.62;15.88;;;;;;;1.96;98.48;100803.02;1645782;87;21203;-70
2021/01/03 00:46:17;;;;;;;22.22;15.38;;;;;;;1.93;98.24;100801.17;1662060;85;21235;-71
2021/01/03 00:48:44;;;;;;;21.35;15.95;;;;;;;1.96;98.39;100794.23;1674346;85;21317;-69
2021/01/03 00:51:12;;;;;;;21.68;15.78;;;;;;;2.00;98.42;100799.03;1674577;85;21630;-67
2021/01/03 00:53:39;;;;;;;21.93;16.23;;;;;;;2.06;98.44;100795.69;1674093;85;21181;-68
2021/01/03 00:56:07;;;;;;;22.00;14.73;;;;;;;2.08;98.34;100796.36;1679629;85;21638;-66
2021/01/03 00:58:35;;;;;;;21.80;14.43;;;;;;;2.10;98.15;100794.38;1678517;84;21568;-65
2021/01/03 01:01:03;;;;;;;20.75;15.38;;;;;;;2.04;98.01;100783.59;1649302;86;21156;-64
2021/01/03 01:03:30;;;;;;;22.07;14.80;;;;;;;2.06;98.23;100782.41;1671324;85;21620;-64
2021/01/03 01:05:59;;;;;;;17.90;13.58;;;;;;;2.11;98.27;100778.77;1642740;86;21681;-67
2021/01/03 01:08:26;;;;;;;20.80;14.63;;;;;;;2.14;98.11;100779.77;1700481;84;21142;-66
2021/01/03 01:10:54;;;;;;;21.42;15.13;;;;;;;2.11;97.75;100785.39;1671265;85;21584;-66
2021/01/03 01:13:21;;;;;;;24.32;15.70;;;;;;;2.12;97.83;100784.90;1667891;85;21161;-65
2021/01/03 01:15:50;;;;;;;24.07;17.60;;;;;;;2.16;97.83;100781.74;1668357;85;21117;-66
2021/01/03 01:18:18;;;;;;;17.87;13.10;;;;;;;2.26;97.85;100778.07;1702330;84;21186;-67
2021/01/03 01:20:45;;;;;;;25.88;15.30;;;;;;;2.26;97.40;100781.55;1679823;84;21354;-67
2021/01/03 01:23:13;;;;;;;24.02;16.52;;;;;;;2.24;97.18;100785.39;1649957;85;21333;-68
2021/01/03 01:25:40;;;;;;;30.68;20.32;;;;;;;2.15;96.47;100781.93;1702248;82;21187;-69
2021/01/03 01:28:08;;;;;;;29.98;20.68;;;;;;;1.97;95.81;100788.73;1670272;85;21659;-66
2021/01/03 01:30:37;;;;;;;37.35;24.15;;;;;;;1.78;95.46;100780.28;1702260;84;21127;-66
2021/01/03 01:33:06;;;;;;;36.77;25.25;;;;;;;1.61;95.35;100781.62;1644714;85;21188;-67
2021/01/03 01:35:34;;;;;;;33.70;20.57;;;;;;;1.48;95.42;100779.97;1642468;87;21618;-67
2021/01/03 01:38:04;;;;;;;37.95;25.30;;;;;;;1.40;95.65;100781.27;1642488;87;21174;-66
2021/01/03 01:40:37;;;;;;;31.75;22.37;;;;;;;1.35;95.91;100786.22;1670654;85;21168;-73
2021/01/03 01:43:09;;;;;;;29.20;18.55;;;;;;;1.33;96.16;100788.23;1671417;85;21145;-69
2021/01/03 01:45:39;;;;;;;32.58;19.37;;;;;;;1.39;96.56;100784.10;1672133;85;21197;-67
2021/01/03 01:48:11;;;;;;;27.30;19.10;;;;;;;1.43;96.91;100790.23;1651316;85;21220;-67
2021/01/03 01:50:46;;;;;;;23.20;15.78;;;;;;;1.46;97.00;100786.41;1642567;87;25459;-68
2021/01/03 01:53:37;;;;;;;26.87;20.10;;;;;;;1.51;97.13;100784.10;1616380;87;21187;-67
2021/01/03 01:56:10;;;;;;;23.27;18.15;;;;;;;1.48;96.97;100783.11;1636198;85;21189;-69
2021/01/03 01:58:54;;;;;;;30.12;19.55;;;;;;;1.49;97.05;100777.62;1652953;85;21159;-70
2021/01/03 02:01:27;;;;;;;24.55;18.48;;;;;;;1.51;97.09;100776.98;1670577;85;21388;-66
2021/01/03 02:04:00;;;;;;;28.73;20.75;;;;;;;1.52;97.13;100778.64;1646182;87;21250;-66
2021/01/03 02:06:34;;;;;;;27.50;18.92;;;;;;;1.51;97.13;100775.66;1654604;84;21627;-67
2021/01/03 02:09:19;;;;;;;26.60;20.23;;;;;;;1.46;96.90;100775.81;1638448;87;21185;-69
2021/01/03 02:11:46;;;;;;;26.07;20.27;;;;;;;1.37;96.88;100776.80;1674726;85;21571;-69
2021/01/03 02:14:14;;;;;;;30.92;20.52;;;;;;;1.35;97.06;100783.58;1644625;86;21426;-67
2021/01/03 02:16:42;;;;;;;33.63;21.57;;;;;;;1.39;97.25;100784.91;1647404;86;21617;-69
2021/01/03 02:19:17;;;;;;;29.57;19.80;;;;;;;1.42;97.31;100790.39;1654563;85;21045;-66
2021/01/03 02:21:58;;;;;;;29.52;19.55;;;;;;;1.44;97.16;100782.59;1645902;86;21148;-67
2021/01/03 02:24:45;;;;;;;31.25;20.70;;;;;;;1.40;97.06;100782.59;1675645;84;21135;-67
2021/01/03 02:28:04;;;;;;;31.75;19.90;;;;;;;1.43;97.15;100782.28;1674960;85;22528;-67
2021/01/03 02:30:32;;;;;;;21.42;15.80;;;;;;;1.46;97.10;100781.11;1632841;87;21238;-67
2021/01/03 02:33:20;;;;;;;30.02;21.07;;;;;;;1.50;97.34;100785.92;1674727;85;21587;-67
2021/01/03 02:35:49;;;;;;;24.43;17.60;;;;;;;1.53;97.53;100790.91;1646077;87;21161;-66
2021/01/03 02:38:21;;;;;;;20.37;14.53;;;;;;;1.56;97.68;100787.09;1646006;87;21156;-71
2021/01/03 02:40:50;;;;;;;25.97;16.48;;;;;;;1.53;97.79;100793.56;1645952;86;22343;-68
2021/01/03 02:43:18;;;;;;;25.60;18.03;;;;;;;1.44;97.99;100785.77;1674799;85;21179;-67
2021/01/03 02:45:46;;;;;;;33.10;20.33;;;;;;;1.33;98.23;100788.23;1674920;85;21662;-66
2021/01/03 02:48:18;;;;;;;28.83;17.48;;;;;;;1.22;98.36;100788.03;1674647;85;21188;-69
2021/01/03 02:50:47;;;;;;;;;;;;;;;1.16;98.72;100780.73;1676935;85;21645;-69
2021/01/03 02:53:15;;;;;;;22.80;15.53;;;;;;;1.17;98.79;100782.89;1673643;85;21247;-66
2021/01/03 02:55:43;;;;;;;19.07;13.33;;;;;;;1.22;99.15;100781.91;1674821;84;21155;-66
2021/01/03 02:58:11;;;;;;;28.23;17.53;;;;;;;1.24;98.96;100785.23;1674806;85;21126;-67
2021/01/03 03:00:38;;;;;;;26.87;17.43;;;;;;;1.27;99.06;100783.57;1673359;85;22008;-67
2021/01/03 03:03:06;;;;;;;29.17;19.93;;;;;;;1.22;99.06;100789.36;1672868;84;21140;-67
2021/01/03 03:05:35;;;;;;;30.08;20.52;;;;;;;1.13;99.19;100796.13;1671031;85;21374;-70
2021/01/03 03:08:03;;;;;;;30.70;20.60;;;;;;;1.03;99.63;100800.23;1671621;85;21037;-66
2021/01/03 03:10:30;;;;;;;25.07;16.93;;;;;;;1.01;100.00;100792.94;1671090;85;21181;-65
2021/01/03 03:12:59;;;;;;;28.37;19.07;;;;;;;0.97;100.00;100791.60;1670911;85;21157;-65
2021/01/03 03:15:32;;;;;;;35.80;23.50;;;;;;;0.95;100.00;100794.92;1641087;87;21608;-66
2021/01/03 03:18:00;;;;;;;23.57;17.03;;;;;;;0.96;100.00;100789.94;1651783;85;21397;-65
2021/01/03 03:20:28;;;;;;;26.47;18.37;;;;;;;0.98;100.00;100782.67;1670279;85;21181;-66
2021/01/03 03:22:56;;;;;;;21.33;14.43;;;;;;;0.98;100.00;100790.62;1656754;85;21575;-70
2021/01/03 03:25:25;;;;;;;27.63;18.57;;;;;;;0.96;100.00;100787.81;1671063;85;21158;-68
2021/01/03 03:27:52;;;;;;;31.27;21.77;;;;;;;0.99;100.00;100791.45;1670992;85;21621;-70
2021/01/03 03:30:21;;;;;;;29.63;18.80;;;;;;;0.98;100.00;100793.76;1670918;85;23737;-68
2021/01/03 03:35:31;;;;;;;35.17;20.17;;;;;;;1.07;100.00;100799.41;1881309;76;22661;-67
2021/01/03 03:37:58;;;;;;;39.03;22.43;;;;;;;1.05;100.00;100791.66;1838692;77;21015;-70
2021/01/03 03:40:26;;;;;;;32.10;19.43;;;;;;;1.05;100.00;100797.44;1820930;78;21388;-67
2021/01/03 03:42:54;;;;;;;32.83;18.17;;;;;;;1.08;100.00;100795.28;1821341;77;21339;-67
2021/01/03 03:45:22;;;;;;;40.67;22.77;;;;;;;1.07;100.00;100792.30;1789365;78;21040;-66
2021/01/03 03:47:50;;;;;;;28.83;18.30;;;;;;;1.08;100.00;100799.75;1850826;77;20982;-68
2021/01/03 03:50:23;;;;;;;29.57;18.00;;;;;;;1.15;100.00;100793.63;1784834;79;20988;-68
2021/01/03 03:52:51;;;;;;;38.77;24.83;;;;;;;1.19;100.00;100791.52;1833482;77;21146;-66
2021/01/03 03:55:18;;;;;;;31.10;18.40;;;;;;;1.17;100.00;100800.94;1835895;77;20986;-66
2021/01/03 03:57:46;;;;;;;37.03;22.37;;;;;;;1.16;100.00;100797.12;1847890;77;20983;-69
2021/01/03 04:00:18;;;;;;;32.07;19.43;;;;;;;1.19;100.00;100792.34;1821004;78;21611;-68
2021/01/03 04:02:46;;;;;;;27.10;16.87;;;;;;;1.21;100.00;100792.99;1821556;77;21160;-65
2021/01/03 04:05:18;;;;;;;37.88;19.98;;;;;;;1.22;100.00;100795.98;1820917;78;21207;-67
2021/01/03 04:07:46;;;;;;;31.70;19.23;;;;;;;1.23;100.00;100802.95;1842514;77;21144;-69
2021/01/03 04:10:14;;;;;;;33.67;22.30;;;;;;;1.26;100.00;100805.76;1854378;77;21035;-68
2021/01/03 04:12:42;;;;;;;34.70;19.82;;;;;;;1.26;100.00;100808.41;1798040;79;21185;-66
2021/01/03 04:15:13;;;;;;;26.45;17.85;;;;;;;1.29;100.00;100810.26;1821089;77;21213;-66
2021/01/03 04:17:41;;;;;;;34.80;23.40;;;;;;;1.28;100.00;100809.09;1839951;77;21197;-66
2021/01/03 04:20:15;;;;;;;34.03;18.27;;;;;;;1.29;100.00;100809.42;1813916;79;21145;-66
2021/01/03 04:22:43;;;;;;;24.90;18.00;;;;;;;1.34;100.00;100812.91;1843218;77;21727;-66
2021/01/03 04:25:12;;;;;;;32.30;18.40;;;;;;;1.36;100.00;100814.88;1787827;80;21614;-66
2021/01/03 04:27:40;;;;;;;39.80;21.62;;;;;;;1.38;100.00;100818.22;1747527;81;21162;-65
2021/01/03 04:30:09;;;;;;;30.50;17.82;;;;;;;1.35;100.00;100815.88;1761339;80;21144;-66
2021/01/03 04:32:37;;;;;;;28.30;19.42;;;;;;;1.33;100.00;100816.55;1789266;78;21042;-66
2021/01/03 04:35:07;;;;;;;23.23;14.57;;;;;;;1.29;100.00;100818.21;1793956;78;20966;-66
2021/01/03 04:37:34;;;;;;;24.85;18.62;;;;;;;1.24;100.00;100821.84;1809692;78;21133;-70
2021/01/03 04:40:04;;;;;;;26.00;14.65;;;;;;;1.22;100.00;100824.30;1788196;80;21161;-66
2021/01/03 04:42:33;;;;;;;29.87;18.17;;;;;;;1.22;100.00;100822.98;1793574;78;21200;-71
2021/01/03 04:45:05;;;;;;;26.37;17.87;;;;;;;1.22;100.00;100819.83;1818667;78;21204;-66
2021/01/03 04:47:40;;;;;;;28.05;17.42;;;;;;;1.21;100.00;100822.14;1815669;78;21559;-68
2021/01/03 04:50:46;;;;;;;23.97;17.13;;;;;;;1.22;100.00;100820.33;1761563;80;21178;-66
2021/01/03 04:53:56;;;;;;;27.17;17.33;;;;;;;1.23;100.00;100820.66;1722074;82;21159;-67
2021/01/03 04:56:29;;;;;;;24.75;17.02;;;;;;;1.26;100.00;100825.62;1729882;82;21356;-67
2021/01/03 04:59:37;;;;;;;28.63;20.30;;;;;;;1.23;100.00;100827.29;1759356;80;21124;-68
2021/01/03 05:02:43;;;;;;;25.37;14.93;;;;;;;1.20;100.00;100821.80;1759764;81;21093;-67
2021/01/03 05:05:40;;;;;;;20.60;14.83;;;;;;;1.17;100.00;100831.41;1746170;81;21106;-71
2021/01/03 05:08:53;;;;;;;24.53;12.70;;;;;;;1.20;100.00;100828.95;1879130;76;22641;-67
2021/01/03 05:11:25;;;;;;;21.23;13.27;;;;;;;1.12;100.00;100825.77;1704857;84;20993;-67
2021/01/03 05:14:32;;;;;;;27.10;18.27;;;;;;;1.09;100.00;100820.80;1726157;82;22395;-68
2021/01/03 05:16:59;;;;;;;32.70;21.10;;;;;;;1.10;100.00;100825.60;1700737;84;21985;-66
2021/01/03 05:19:27;;;;;;;29.93;15.97;;;;;;;1.15;100.00;100833.90;1727794;83;21011;-67
2021/01/03 05:21:57;;;;;;;35.33;19.60;;;;;;;1.17;100.00;100830.08;1726201;83;21027;-67
2021/01/03 05:24:27;;;;;;;30.87;15.03;;;;;;;1.18;100.00;100838.87;1773268;80;20959;-67
2021/01/03 05:26:55;;;;;;;28.10;18.67;;;;;;;1.16;100.00;100835.53;1776484;80;21431;-67
2021/01/03 05:29:26;;;;;;;29.10;15.53;;;;;;;1.14;100.00;100834.39;1776150;80;20997;-68
2021/01/03 05:32:01;;;;;;;38.37;21.00;;;;;;;1.09;100.00;100831.88;1776566;80;20998;-67
2021/01/03 05:34:36;;;;;;;32.60;20.80;;;;;;;1.08;100.00;100834.20;1776497;80;21101;-70
2021/01/03 05:37:15;;;;;;;36.00;18.53;;;;;;;1.07;100.00;100835.17;1776460;80;21167;-65
2021/01/03 05:39:44;;;;;;;26.73;16.13;;;;;;;1.04;100.00;100832.86;1776499;80;21267;-80
2021/01/03 05:42:26;;;;;;;31.20;17.57;;;;;;;0.99;100.00;100836.48;1776416;80;21122;-67
2021/01/03 05:45:07;;;;;;;34.03;20.10;;;;;;;0.95;100.00;100841.27;1776791;80;20992;-67
2021/01/03 05:47:58;;;;;;;34.07;16.53;;;;;;;0.98;100.00;100846.24;1776402;80;21730;-66
2021/01/03 05:50:34;;;;;;;28.37;16.47;;;;;;;0.96;100.00;100847.41;1776522;80;21575;-71
2021/01/03 05:53:25;;;;;;;32.23;15.43;;;;;;;1.01;100.00;100849.08;1776424;80;21179;-66
2021/01/03 05:55:59;;;;;;;36.00;21.63;;;;;;;1.06;100.00;100849.41;1776356;80;21164;-67
2021/01/03 05:58:36;;;;;;;25.45;14.33;;;;;;;1.06;100.00;100848.08;1776585;80;21571;-67
2021/01/03 06:01:18;;;;;;;42.30;18.27;;;;;;;1.00;100.00;100855.36;1767671;80;21129;-85
2021/01/03 06:04:02;;;;;;;35.80;19.27;;;;;;;0.96;100.00;100854.83;1754611;79;21117;-67
2021/01/03 06:07:01;;;;;;;29.83;14.13;;;;;;;0.95;100.00;100857.16;1760275;80;21216;-66
2021/01/03 06:09:39;;;;;;;28.90;17.25;;;;;;;0.95;100.00;100851.04;1776301;80;21044;-67
2021/01/03 06:12:18;;;;;;;26.10;12.30;;;;;;;0.92;100.00;100852.17;1775960;80;20997;-71
2021/01/03 06:14:50;;;;;;;22.25;12.00;;;;;;;0.94;100.00;100853.34;1755576;81;21058;-67
2021/01/03 06:17:30;;;;;;;24.00;12.93;;;;;;;0.92;100.00;100852.17;1755726;80;21188;-67
2021/01/03 06:20:19;;;;;;;23.00;13.03;;;;;;;0.95;100.00;100861.14;1775884;80;23559;-67
2021/01/03 06:22:50;;;;;;;23.37;12.27;;;;;;;0.92;100.00;100854.81;1752842;80;21168;-66
2021/01/03 06:25:42;;;;;;;30.07;14.27;;;;;;;0.87;100.00;100850.48;1775939;80;21014;-68
2021/01/03 06:28:27;;;;;;;27.83;14.03;;;;;;;0.87;100.00;100861.91;1775827;80;21124;-67
2021/01/03 06:31:32;;;;;;;28.63;16.30;;;;;;;0.91;100.00;100857.64;1753897;80;21148;-66
2021/01/03 06:34:30;;;;;;;28.37;17.60;;;;;;;0.90;100.00;100855.48;1775850;80;21384;-68
2021/01/03 06:37:11;;;;;;;27.17;17.47;;;;;;;0.96;100.00;100862.77;1775842;80;21910;-67
2021/01/03 06:40:05;;;;;;;25.95;15.32;;;;;;;0.99;100.00;100849.23;1774765;80;21096;-66
2021/01/03 06:42:55;;;;;;;24.37;13.48;;;;;;;1.01;100.00;100859.67;1776084;80;21849;-68
2021/01/03 06:46:19;;;;;;;27.30;15.07;;;;;;;1.00;100.00;100852.22;1728754;80;23540;-64
2021/01/03 06:49:01;;;;;;;24.27;15.33;;;;;;;1.04;100.00;100860.67;1724428;81;21388;-66
2021/01/03 06:51:38;;;;;;;29.60;15.98;;;;;;;1.03;100.00;100868.28;1758811;81;21030;-66
2021/01/03 06:54:42;;;;;;;17.53;11.23;;;;;;;1.05;100.00;100862.34;1758814;81;21551;-65
2021/01/03 06:57:40;;;;;;;19.67;11.60;;;;;;;1.07;100.00;100868.29;1759061;81;20986;-65
2021/01/03 07:00:22;;;;;;;19.57;11.63;;;;;;;1.05;100.00;100864.50;1758683;81;21559;-65
2021/01/03 07:03:05;;;;;;;16.07;9.60;;;;;;;1.07;100.00;100864.31;1758606;81;21363;-66
2021/01/03 07:05:35;;;;;;;17.97;11.37;;;;;;;1.04;100.00;100865.97;1758620;81;21590;-69
2021/01/03 07:08:06;;;;;;;19.03;12.67;;;;;;;1.06;100.00;100874.08;1758361;81;20935;-66
2021/01/03 07:10:42;;;;;;;17.90;11.23;;;;;;;1.07;100.00;100868.29;1757193;80;21045;-66
2021/01/03 07:13:33;;;;;;;21.57;15.47;;;;;;;1.09;100.00;100874.27;1756251;81;21138;-66
2021/01/03 07:16:02;;;;;;;13.40;8.37;;;;;;;1.08;100.00;100873.44;1756321;81;21332;-82
2021/01/03 07:18:41;;;;;;;18.97;12.90;;;;;;;1.09;100.00;100870.30;1730541;82;21113;-67
2021/01/03 07:21:20;;;;;;;18.17;11.13;;;;;;;1.10;100.00;100882.56;1724672;82;21126;-66
2021/01/03 07:23:49;;;;;;;18.07;11.90;;;;;;;1.15;100.00;100872.31;1742953;81;21097;-68
2021/01/03 07:26:28;;;;;;;22.13;12.23;;;;;;;1.19;100.00;100879.78;1756541;81;21165;-64
2021/01/03 07:29:06;;;;;;;14.58;10.48;;;;;;;1.23;100.00;100877.64;1755584;81;21366;-66
2021/01/03 07:31:42;;;;;;;18.73;10.87;;;;;;;1.24;100.00;100878.81;1756275;81;21141;-65
2021/01/03 07:34:23;;;;;;;17.52;9.00;;;;;;;1.22;100.00;100882.59;1756353;80;21022;-65
2021/01/03 07:36:59;;;;;;;17.93;11.57;;;;;;;1.23;100.00;100880.28;1756140;81;21179;-87
2021/01/03 07:39:30;;;;;;;16.82;11.35;;;;;;;1.29;100.00;100878.33;1751057;81;21603;-66
2021/01/03 07:42:24;;;;;;;15.38;10.18;;;;;;;1.29;100.00;100880.98;1754257;81;21190;-67
2021/01/03 07:44:53;;;;;;;17.48;12.98;;;;;;;1.27;100.00;100879.80;1734141;81;21166;-67
2021/01/03 07:47:43;;;;;;;13.38;8.00;;;;;;;1.31;100.00;100875.00;1733619;81;21547;-66
2021/01/03 07:50:39;;;;;;;20.20;11.05;;;;;;;1.40;100.00;100874.03;1726117;82;21109;-67
2021/01/03 07:53:29;;;;;;;18.85;10.60;;;;;;;1.45;100.00;100875.70;1718185;83;21187;-65
2021/01/03 07:56:23;;;;;;;11.60;7.33;;;;;;;1.45;100.00;100874.37;1728527;82;22134;-67
2021/01/03 07:58:53;;;;;;;;;;;;;;;1.43;100.00;100877.70;1727596;81;21026;-67
2021/01/03 08:01:23;;;;;;;17.17;11.30;;;;;;;1.42;100.00;100884.48;1735714;82;20486;-66
2021/01/03 08:03:50;;;;;;;12.53;8.77;;;;;;;1.46;100.00;100875.22;1720120;82;21119;-68
2021/01/03 08:06:18;;;;;;;24.90;15.83;;;;;;;1.50;100.00;100872.56;1738346;82;21114;-66
2021/01/03 08:08:54;;;;;;;17.17;13.43;;;;;;;1.57;100.00;100873.09;1744018;82;21378;-64
2021/01/03 08:11:39;;;;;;;19.27;12.35;;;;;;;1.63;100.00;100873.75;1744201;81;21598;-71
2021/01/03 08:14:15;;;;;;;18.67;10.20;;;;;;;1.69;100.00;100873.59;1749093;81;21163;-67
2021/01/03 08:16:42;;;;;;;14.85;9.70;;;;;;;1.76;100.00;100871.97;1746647;82;21589;-69
2021/01/03 08:19:10;;;;;;;16.35;10.45;;;;;;;1.77;100.00;100872.80;1747307;82;21626;-69
2021/01/03 08:21:40;;;;;;;17.85;12.10;;;;;;;1.71;100.00;100867.65;1752348;80;21386;-70
2021/01/03 08:24:18;;;;;;;15.28;9.78;;;;;;;1.68;100.00;100874.59;1749549;81;21569;-69
2021/01/03 08:26:57;;;;;;;14.68;10.95;;;;;;;1.67;100.00;100870.30;1747260;82;21172;-68
2021/01/03 08:29:44;;;;;;;17.57;9.98;;;;;;;1.70;100.00;100872.13;1747319;82;22203;-67
2021/01/03 08:32:20;;;;;;;16.77;10.82;;;;;;;1.70;100.00;100872.61;1747221;82;21165;-69
2021/01/03 08:34:47;;;;;;;21.35;12.63;;;;;;;1.64;100.00;100870.61;1747258;81;21374;-68
2021/01/03 08:37:26;;;;;;;16.05;10.65;;;;;;;1.65;100.00;100867.80;1747228;82;21025;-66
2021/01/03 08:39:54;;;;;;;22.90;15.08;;;;;;;1.67;100.00;100863.67;1747380;82;21602;-88
2021/01/03 08:42:29;;;;;;;15.55;9.45;;;;;;;1.73;100.00;100865.64;1747237;82;21135;-66
2021/01/03 08:44:58;;;;;;;16.82;12.30;;;;;;;1.73;100.00;100864.31;1746308;82;21155;-67
2021/01/03 08:47:38;;;;;;;20.00;11.90;;;;;;;1.77;100.00;100870.15;1726972;82;21372;-66
2021/01/03 08:50:24;;;;;;;17.20;11.40;;;;;;;1.84;100.00;100879.09;1746772;82;21161;-67
2021/01/03 08:53:02;;;;;;;17.87;10.82;;;;;;;1.88;100.00;100884.39;1747381;82;21191;-66
2021/01/03 08:55:34;;;;;;;16.07;10.32;;;;;;;1.82;100.00;100869.99;1718793;83;21561;-62
2021/01/03 08:58:05;;;;;;;24.67;13.00;;;;;;;1.80;100.00;100866.66;1739886;82;21171;-66
2021/01/03 09:00:35;;;;;;;20.72;13.13;;;;;;;1.87;100.00;100868.17;1747395;82;21385;-63
2021/01/03 09:03:03;;;;;;;15.95;10.80;;;;;;;1.89;100.00;100863.02;1747204;82;21158;-67
2021/01/03 09:05:33;;;;;;;20.17;12.75;;;;;;;1.86;100.00;100871.81;1747156;82;21200;-67
2021/01/03 09:08:04;;;;;;;23.22;13.68;;;;;;;1.88;100.00;100868.48;1747167;81;21036;-70
2021/01/03 09:10:38;;;;;;;19.95;11.97;;;;;;;1.89;100.00;100867.00;1747955;82;21163;-66
2021/01/03 09:13:24;;;;;;;27.50;17.05;;;;;;;1.89;100.00;100879.43;1728770;82;21657;-67
2021/01/03 09:16:08;;;;;;;24.23;15.30;;;;;;;1.91;100.00;100876.12;1775194;80;21015;-68
2021/01/03 09:18:40;;;;;;;22.32;13.43;;;;;;;1.87;100.00;100880.11;1772001;79;21602;-68
2021/01/03 09:21:11;;;;;;;26.07;17.60;;;;;;;1.84;100.00;100884.40;1770671;78;21567;-72
2021/01/03 09:23:41;;;;;;;23.98;15.58;;;;;;;1.86;100.00;100891.70;1788499;80;21566;-67
2021/01/03 09:26:09;;;;;;;23.27;16.02;;;;;;;1.90;100.00;100891.70;1788484;80;21430;-67
2021/01/03 09:28:41;;;;;;;21.10;13.93;;;;;;;1.88;100.00;100887.05;1788314;79;21221;-65
2021/01/03 09:31:22;;;;;;;21.62;12.45;;;;;;;1.88;100.00;100890.53;1788290;79;21145;-66
2021/01/03 09:33:54;;;;;;;23.55;16.42;;;;;;;1.86;100.00;100900.99;1788564;80;21125;-65
2021/01/03 09:36:35;;;;;;;19.40;14.15;;;;;;;1.78;100.00;100891.67;1789089;80;21158;-65
2021/01/03 09:39:29;;;;;;;23.50;16.07;;;;;;;1.83;100.00;100886.70;1788317;79;21349;-63
2021/01/03 09:42:04;;;;;;;20.95;13.45;;;;;;;1.87;100.00;100883.56;1785484;80;21008;-64
2021/01/03 09:45:06;;;;;;;26.02;17.05;;;;;;;1.89;100.00;100882.91;1790220;79;20983;-67
2021/01/03 09:47:39;;;;;;;26.10;17.57;;;;;;;1.89;100.00;100870.98;1788059;79;21227;-64
2021/01/03 09:50:24;;;;;;;21.00;14.60;;;;;;;1.88;100.00;100881.74;1788369;80;21172;-63
2021/01/03 09:53:09;;;;;;;20.00;13.18;;;;;;;1.82;100.00;100872.64;1788382;80;21630;-63
2021/01/03 09:55:54;;;;;;;23.32;15.40;;;;;;;1.85;100.00;100874.13;1788329;79;21188;-65
2021/01/03 09:58:23;;;;;;;24.82;16.73;;;;;;;1.86;100.00;100858.55;1788173;79;21105;-66
2021/01/03 10:00:54;;;;;;;27.07;18.10;;;;;;;1.91;100.00;100868.17;1788529;80;21137;-68
2021/01/03 10:03:35;;;;;;;22.60;13.80;;;;;;;2.01;100.00;100868.84;1788617;79;21587;-64
2021/01/03 10:06:35;;;;;;;25.23;14.63;;;;;;;2.12;100.00;100865.84;1786023;79;21153;-66
2021/01/03 10:09:27;;;;;;;25.45;16.55;;;;;;;2.12;100.00;100860.03;1788402;80;21836;-64
2021/01/03 10:11:56;;;;;;;25.70;18.65;;;;;;;2.14;100.00;100858.55;1789690;80;21117;-65
2021/01/03 10:14:35;;;;;;;23.55;15.08;;;;;;;2.16;100.00;100852.06;1776418;80;21161;-64
2021/01/03 10:17:20;;;;;;;28.87;16.37;;;;;;;2.15;100.00;100853.58;1788368;80;21105;-66
2021/01/03 10:19:48;;;;;;;23.95;16.90;;;;;;;2.16;100.00;100849.91;1788688;79;21252;-67
2021/01/03 10:22:34;;;;;;;24.25;14.05;;;;;;;2.24;100.00;100850.42;1761396;80;21221;-64
2021/01/03 10:25:05;;;;;;;26.77;17.52;;;;;;;2.25;100.00;100841.47;1760003;80;21547;-65
2021/01/03 10:27:32;;;;;;;21.60;15.43;;;;;;;2.24;100.00;100850.42;1762359;80;21166;-65
2021/01/03 10:30:00;;;;;;;26.95;16.10;;;;;;;2.30;100.00;100839.14;1778207;80;21610;-68
2021/01/03 10:32:28;;;;;;;22.60;13.20;;;;;;;2.34;100.00;100841.78;1790212;80;21200;-64
2021/01/03 10:34:56;;;;;;;18.37;13.32;;;;;;;2.38;100.00;100849.23;1783857;80;21038;-72
2021/01/03 10:37:23;;;;;;;23.45;15.03;;;;;;;2.33;100.00;100842.28;1790180;80;21126;-67
2021/01/03 10:39:51;;;;;;;21.97;15.45;;;;;;;2.38;100.00;100845.26;1790407;78;21089;-66
2021/01/03 10:42:18;;;;;;;18.15;12.15;;;;;;;2.43;100.00;100848.23;1790493;80;21601;-66
2021/01/03 10:44:45;;;;;;;25.00;13.38;;;;;;;2.50;100.00;100841.23;1790407;80;22248;-66
2021/01/03 10:47:13;;;;;;;25.08;16.00;;;;;;;2.53;100.00;100838.76;1790080;79;21180;-68
2021/01/03 10:49:40;;;;;;;25.92;17.57;;;;;;;2.51;100.00;100835.43;1790390;79;21137;-65
2021/01/03 10:52:07;;;;;;;23.87;16.00;;;;;;;2.51;100.00;100835.43;1790360;79;21148;-68
2021/01/03 10:54:35;;;;;;;23.15;15.65;;;;;;;2.51;100.00;100833.61;1790316;80;21130;-67
2021/01/03 10:57:05;;;;;;;24.65;17.35;;;;;;;2.48;100.00;100825.99;1790201;79;22121;-66
2021/01/03 10:59:32;;;;;;;20.23;13.08;;;;;;;2.47;100.00;100825.66;1790377;80;20975;-66
2021/01/03 11:02:01;;;;;;;24.02;14.55;;;;;;;2.47;100.00;100826.16;1790810;80;21507;-64
2021/01/03 11:04:29;;;;;;;19.67;13.45;;;;;;;2.42;100.00;100830.64;1790685;80;21121;-66
2021/01/03 11:06:57;;;;;;;23.87;14.78;;;;;;;2.37;100.00;100821.52;1790378;80;21567;-68
2021/01/03 11:09:28;;;;;;;21.37;14.80;;;;;;;2.36;100.00;100822.52;1790232;80;21249;-65
2021/01/03 11:12:10;;;;;;;26.55;14.73;;;;;;;2.33;100.00;100819.72;1790260;79;21187;-68
2021/01/03 11:14:39;;;;;;;17.37;11.63;;;;;;;2.34;100.00;100816.56;1790973;79;28827;-65
2021/01/03 11:17:08;;;;;;;21.80;14.58;;;;;;;2.36;100.00;100815.38;1790588;79;21160;-67
2021/01/03 11:19:35;;;;;;;19.30;14.43;;;;;;;2.36;100.00;100808.74;1782807;80;21267;-64
2021/01/03 11:22:05;;;;;;;20.90;11.80;;;;;;;2.37;100.00;100809.08;1790632;79;21263;-65
2021/01/03 11:24:32;;;;;;;20.12;13.32;;;;;;;2.37;100.00;100805.59;1790558;80;21144;-66
2021/01/03 11:27:05;;;;;;;21.30;15.25;;;;;;;2.35;100.00;100811.06;1790554;80;21097;-65
2021/01/03 11:29:34;;;;;;;18.50;11.35;;;;;;;2.36;100.00;100811.41;1781319;80;21181;-65
2021/01/03 11:32:06;;;;;;;18.77;13.08;;;;;;;2.38;100.00;100813.89;1790659;79;21110;-80
2021/01/03 11:34:33;;;;;;;13.55;10.38;;;;;;;2.36;100.00;100812.73;1779911;80;21377;-65
2021/01/03 11:37:09;;;;;;;19.12;13.15;;;;;;;2.37;100.00;100814.88;1790510;80;21145;-63
2021/01/03 11:39:37;;;;;;;16.55;12.37;;;;;;;2.40;100.00;100811.91;1790192;79;21662;-66
2021/01/03 11:42:10;;;;;;;21.17;12.55;;;;;;;2.45;100.00;100813.53;1790608;79;21129;-68
2021/01/03 11:44:40;;;;;;;16.82;12.65;;;;;;;2.44;100.00;100812.73;1791060;79;21137;-70
2021/01/03 11:47:11;;;;;;;14.13;10.32;;;;;;;2.42;100.00;100802.77;1790883;80;21291;-64
2021/01/03 11:49:39;;;;;;;18.95;12.90;;;;;;;2.48;100.00;100803.92;1790489;79;21018;-66